sensor_id;sensor_type;location;lat;lon;timestamp;P1;durP1;ratioP1;P2;durP2;ratioP2
59062;SDS011;44851;45.648;9.004;2022-08-03T00:01:20;3.10;;;2.80;;
59062;SDS011;44851;45.648;9.004;2022-08-03T00:03:46;3.67;;;3.30;;
59062;SDS011;44851;45.648;9.004;2022-08-03T00:06:11;3.40;;;3.10;;
59062;SDS011;44851;45.648;9.004;2022-08-03T00:08:37;4.33;;;3.30;;
59062;SDS011;44851;45.648;9.004;2022-08-03T00:11:02;3.67;;;3.20;;
59062;SDS011;44851;45.648;9.004;2022-08-03T00:13:28;5.20;;;3.10;;
59062;SDS011;44851;45.648;9.004;2022-08-03T00:15:54;3.97;;;3.20;;
59062;SDS011;44851;45.648;9.004;2022-08-03T00:18:19;5.23;;;3.63;;
59062;SDS011;44851;45.648;9.004;2022-08-03T00:20:45;4.30;;;3.20;;
59062;SDS011;44851;45.648;9.004;2022-08-03T00:23:11;3.70;;;3.40;;
59062;SDS011;44851;45.648;9.004;2022-08-03T00:25:36;4.27;;;3.00;;
59062;SDS011;44851;45.648;9.004;2022-08-03T00:28:03;3.40;;;3.10;;
59062;SDS011;44851;45.648;9.004;2022-08-03T00:30:30;3.97;;;3.30;;
59062;SDS011;44851;45.648;9.004;2022-08-03T00:32:56;4.27;;;3.37;;
59062;SDS011;44851;45.648;9.004;2022-08-03T00:35:21;4.03;;;3.63;;
59062;SDS011;44851;45.648;9.004;2022-08-03T00:37:47;6.07;;;4.13;;
59062;SDS011;44851;45.648;9.004;2022-08-03T00:40:13;4.77;;;4.27;;
59062;SDS011;44851;45.648;9.004;2022-08-03T00:42:46;4.70;;;4.30;;
59062;SDS011;44851;45.648;9.004;2022-08-03T00:45:12;4.50;;;4.10;;
59062;SDS011;44851;45.648;9.004;2022-08-03T00:47:38;5.20;;;3.80;;
59062;SDS011;44851;45.648;9.004;2022-08-03T00:50:03;4.77;;;4.07;;
59062;SDS011;44851;45.648;9.004;2022-08-03T00:52:29;7.10;;;3.50;;
59062;SDS011;44851;45.648;9.004;2022-08-03T00:54:55;4.80;;;3.43;;
59062;SDS011;44851;45.648;9.004;2022-08-03T00:57:20;6.30;;;4.30;;
59062;SDS011;44851;45.648;9.004;2022-08-03T00:59:45;4.20;;;3.80;;
59062;SDS011;44851;45.648;9.004;2022-08-03T01:02:11;5.03;;;4.07;;
59062;SDS011;44851;45.648;9.004;2022-08-03T01:04:36;4.37;;;3.97;;
59062;SDS011;44851;45.648;9.004;2022-08-03T01:07:06;6.57;;;4.50;;
59062;SDS011;44851;45.648;9.004;2022-08-03T01:14:52;4.97;;;4.37;;
59062;SDS011;44851;45.648;9.004;2022-08-03T01:17:36;5.00;;;4.23;;
59062;SDS011;44851;45.648;9.004;2022-08-03T01:20:11;5.47;;;4.50;;
59062;SDS011;44851;45.648;9.004;2022-08-03T01:25:54;5.23;;;4.10;;
59062;SDS011;44851;45.648;9.004;2022-08-03T01:31:23;4.70;;;3.90;;
59062;SDS011;44851;45.648;9.004;2022-08-03T01:33:56;6.30;;;4.07;;
59062;SDS011;44851;45.648;9.004;2022-08-03T01:36:27;4.83;;;3.63;;
59062;SDS011;44851;45.648;9.004;2022-08-03T01:38:58;4.77;;;3.60;;
59062;SDS011;44851;45.648;9.004;2022-08-03T01:41:30;3.97;;;3.57;;
59062;SDS011;44851;45.648;9.004;2022-08-03T01:43:58;4.10;;;3.67;;
59062;SDS011;44851;45.648;9.004;2022-08-03T01:46:26;3.70;;;3.40;;
59062;SDS011;44851;45.648;9.004;2022-08-03T01:48:54;3.57;;;3.33;;
59062;SDS011;44851;45.648;9.004;2022-08-03T01:51:21;4.30;;;3.67;;
59062;SDS011;44851;45.648;9.004;2022-08-03T01:53:47;3.73;;;3.30;;
59062;SDS011;44851;45.648;9.004;2022-08-03T01:56:15;5.17;;;3.93;;
59062;SDS011;44851;45.648;9.004;2022-08-03T01:58:43;4.50;;;4.10;;
59062;SDS011;44851;45.648;9.004;2022-08-03T02:01:10;5.43;;;3.70;;
59062;SDS011;44851;45.648;9.004;2022-08-03T02:03:38;4.87;;;4.37;;
59062;SDS011;44851;45.648;9.004;2022-08-03T02:06:06;5.30;;;3.80;;
59062;SDS011;44851;45.648;9.004;2022-08-03T02:08:34;4.10;;;3.80;;
59062;SDS011;44851;45.648;9.004;2022-08-03T02:11:01;3.97;;;3.63;;
59062;SDS011;44851;45.648;9.004;2022-08-03T02:13:27;5.90;;;3.90;;
59062;SDS011;44851;45.648;9.004;2022-08-03T02:15:54;4.10;;;3.70;;
59062;SDS011;44851;45.648;9.004;2022-08-03T02:18:22;3.80;;;3.40;;
59062;SDS011;44851;45.648;9.004;2022-08-03T02:20:49;4.47;;;4.07;;
59062;SDS011;44851;45.648;9.004;2022-08-03T02:23:16;4.17;;;3.87;;
59062;SDS011;44851;45.648;9.004;2022-08-03T02:25:46;4.20;;;3.80;;
59062;SDS011;44851;45.648;9.004;2022-08-03T02:28:18;5.70;;;4.37;;
59062;SDS011;44851;45.648;9.004;2022-08-03T02:30:45;4.37;;;3.83;;
59062;SDS011;44851;45.648;9.004;2022-08-03T02:33:19;6.23;;;4.70;;
59062;SDS011;44851;45.648;9.004;2022-08-03T02:35:49;5.00;;;4.23;;
59062;SDS011;44851;45.648;9.004;2022-08-03T02:38:17;4.87;;;4.47;;
59062;SDS011;44851;45.648;9.004;2022-08-03T02:40:45;5.30;;;4.73;;
59062;SDS011;44851;45.648;9.004;2022-08-03T02:43:15;8.33;;;5.60;;
59062;SDS011;44851;45.648;9.004;2022-08-03T02:45:44;5.90;;;4.93;;
59062;SDS011;44851;45.648;9.004;2022-08-03T02:48:16;6.13;;;4.87;;
59062;SDS011;44851;45.648;9.004;2022-08-03T02:50:46;5.10;;;4.60;;
59062;SDS011;44851;45.648;9.004;2022-08-03T02:53:13;5.57;;;4.53;;
59062;SDS011;44851;45.648;9.004;2022-08-03T02:55:41;5.70;;;4.30;;
59062;SDS011;44851;45.648;9.004;2022-08-03T02:58:10;4.13;;;3.80;;
59062;SDS011;44851;45.648;9.004;2022-08-03T03:00:37;4.17;;;3.73;;
59062;SDS011;44851;45.648;9.004;2022-08-03T03:03:04;4.33;;;4.03;;
59062;SDS011;44851;45.648;9.004;2022-08-03T03:05:30;4.70;;;4.23;;
59062;SDS011;44851;45.648;9.004;2022-08-03T03:07:56;4.50;;;4.10;;
59062;SDS011;44851;45.648;9.004;2022-08-03T03:10:22;3.97;;;3.57;;
59062;SDS011;44851;45.648;9.004;2022-08-03T03:12:50;4.13;;;3.70;;
59062;SDS011;44851;45.648;9.004;2022-08-03T03:15:19;4.47;;;4.00;;
59062;SDS011;44851;45.648;9.004;2022-08-03T03:17:44;4.73;;;3.70;;
59062;SDS011;44851;45.648;9.004;2022-08-03T03:20:11;5.13;;;3.80;;
59062;SDS011;44851;45.648;9.004;2022-08-03T03:22:39;4.40;;;4.07;;
59062;SDS011;44851;45.648;9.004;2022-08-03T03:25:05;4.20;;;3.67;;
59062;SDS011;44851;45.648;9.004;2022-08-03T03:27:32;4.93;;;3.80;;
59062;SDS011;44851;45.648;9.004;2022-08-03T03:29:58;5.23;;;3.80;;
59062;SDS011;44851;45.648;9.004;2022-08-03T03:32:25;5.57;;;3.67;;
59062;SDS011;44851;45.648;9.004;2022-08-03T03:34:52;5.77;;;4.03;;
59062;SDS011;44851;45.648;9.004;2022-08-03T03:37:19;4.27;;;3.70;;
59062;SDS011;44851;45.648;9.004;2022-08-03T03:39:45;5.67;;;4.03;;
59062;SDS011;44851;45.648;9.004;2022-08-03T03:42:10;6.30;;;4.10;;
59062;SDS011;44851;45.648;9.004;2022-08-03T03:44:36;4.03;;;3.70;;
59062;SDS011;44851;45.648;9.004;2022-08-03T03:47:01;6.70;;;4.20;;
59062;SDS011;44851;45.648;9.004;2022-08-03T03:49:27;4.37;;;3.97;;
59062;SDS011;44851;45.648;9.004;2022-08-03T03:51:53;3.93;;;3.63;;
59062;SDS011;44851;45.648;9.004;2022-08-03T03:54:19;3.70;;;3.40;;
59062;SDS011;44851;45.648;9.004;2022-08-03T03:56:45;4.20;;;3.90;;
59062;SDS011;44851;45.648;9.004;2022-08-03T03:59:10;4.37;;;4.00;;
59062;SDS011;44851;45.648;9.004;2022-08-03T04:01:37;6.73;;;4.43;;
59062;SDS011;44851;45.648;9.004;2022-08-03T04:04:03;5.00;;;4.50;;
59062;SDS011;44851;45.648;9.004;2022-08-03T04:06:48;6.60;;;4.60;;
59062;SDS011;44851;45.648;9.004;2022-08-03T04:09:33;8.20;;;5.03;;
59062;SDS011;44851;45.648;9.004;2022-08-03T04:12:22;5.70;;;5.10;;
59062;SDS011;44851;45.648;9.004;2022-08-03T04:14:50;7.30;;;5.20;;
59062;SDS011;44851;45.648;9.004;2022-08-03T04:17:19;7.00;;;5.30;;
59062;SDS011;44851;45.648;9.004;2022-08-03T04:19:51;5.60;;;4.60;;
59062;SDS011;44851;45.648;9.004;2022-08-03T04:22:19;6.10;;;4.97;;
59062;SDS011;44851;45.648;9.004;2022-08-03T04:24:52;6.30;;;4.57;;
59062;SDS011;44851;45.648;9.004;2022-08-03T04:27:24;5.70;;;4.90;;
59062;SDS011;44851;45.648;9.004;2022-08-03T04:29:53;5.43;;;4.33;;
59062;SDS011;44851;45.648;9.004;2022-08-03T04:32:20;5.50;;;4.20;;
59062;SDS011;44851;45.648;9.004;2022-08-03T04:34:50;4.53;;;4.07;;
59062;SDS011;44851;45.648;9.004;2022-08-03T04:37:30;4.20;;;3.80;;
59062;SDS011;44851;45.648;9.004;2022-08-03T04:40:01;4.67;;;3.97;;
59062;SDS011;44851;45.648;9.004;2022-08-03T04:42:29;4.60;;;4.20;;
59062;SDS011;44851;45.648;9.004;2022-08-03T04:44:57;4.40;;;4.00;;
59062;SDS011;44851;45.648;9.004;2022-08-03T04:47:22;4.90;;;4.50;;
59062;SDS011;44851;45.648;9.004;2022-08-03T04:49:48;4.63;;;4.23;;
59062;SDS011;44851;45.648;9.004;2022-08-03T04:52:14;5.27;;;4.10;;
59062;SDS011;44851;45.648;9.004;2022-08-03T04:54:40;4.60;;;4.30;;
59062;SDS011;44851;45.648;9.004;2022-08-03T04:57:07;5.77;;;3.90;;
59062;SDS011;44851;45.648;9.004;2022-08-03T04:59:32;4.30;;;3.97;;
59062;SDS011;44851;45.648;9.004;2022-08-03T05:01:58;6.63;;;4.27;;
59062;SDS011;44851;45.648;9.004;2022-08-03T05:04:23;4.57;;;4.17;;
59062;SDS011;44851;45.648;9.004;2022-08-03T05:06:48;4.30;;;3.93;;
59062;SDS011;44851;45.648;9.004;2022-08-03T05:09:13;3.97;;;3.50;;
59062;SDS011;44851;45.648;9.004;2022-08-03T05:11:39;6.50;;;4.07;;
59062;SDS011;44851;45.648;9.004;2022-08-03T05:14:04;4.73;;;4.10;;
59062;SDS011;44851;45.648;9.004;2022-08-03T05:16:29;5.07;;;4.63;;
59062;SDS011;44851;45.648;9.004;2022-08-03T05:18:55;8.77;;;5.10;;
59062;SDS011;44851;45.648;9.004;2022-08-03T05:21:20;6.07;;;4.70;;
59062;SDS011;44851;45.648;9.004;2022-08-03T05:23:46;7.97;;;4.73;;
59062;SDS011;44851;45.648;9.004;2022-08-03T05:26:11;8.93;;;5.43;;
59062;SDS011;44851;45.648;9.004;2022-08-03T05:28:37;5.67;;;4.83;;
59062;SDS011;44851;45.648;9.004;2022-08-03T05:31:02;5.73;;;4.77;;
59062;SDS011;44851;45.648;9.004;2022-08-03T05:33:28;8.07;;;4.70;;
59062;SDS011;44851;45.648;9.004;2022-08-03T05:35:53;7.90;;;4.90;;
59062;SDS011;44851;45.648;9.004;2022-08-03T05:38:19;8.07;;;4.63;;
59062;SDS011;44851;45.648;9.004;2022-08-03T05:40:44;9.50;;;4.67;;
59062;SDS011;44851;45.648;9.004;2022-08-03T05:43:10;7.83;;;5.27;;
59062;SDS011;44851;45.648;9.004;2022-08-03T05:45:35;8.03;;;5.50;;
59062;SDS011;44851;45.648;9.004;2022-08-03T05:48:02;14.00;;;4.80;;
59062;SDS011;44851;45.648;9.004;2022-08-03T05:50:29;7.80;;;5.03;;
59062;SDS011;44851;45.648;9.004;2022-08-03T05:52:55;7.53;;;5.07;;
59062;SDS011;44851;45.648;9.004;2022-08-03T05:55:23;8.70;;;4.90;;
59062;SDS011;44851;45.648;9.004;2022-08-03T05:57:49;6.13;;;5.10;;
59062;SDS011;44851;45.648;9.004;2022-08-03T06:00:15;6.90;;;5.40;;
59062;SDS011;44851;45.648;9.004;2022-08-03T06:02:41;9.70;;;5.93;;
59062;SDS011;44851;45.648;9.004;2022-08-03T06:05:06;10.63;;;5.87;;
59062;SDS011;44851;45.648;9.004;2022-08-03T06:07:33;9.23;;;5.93;;
59062;SDS011;44851;45.648;9.004;2022-08-03T06:09:58;9.20;;;6.10;;
59062;SDS011;44851;45.648;9.004;2022-08-03T06:12:26;7.93;;;5.30;;
59062;SDS011;44851;45.648;9.004;2022-08-03T06:14:51;8.17;;;5.30;;
59062;SDS011;44851;45.648;9.004;2022-08-03T06:17:16;6.90;;;4.60;;
59062;SDS011;44851;45.648;9.004;2022-08-03T06:19:42;5.53;;;4.27;;
59062;SDS011;44851;45.648;9.004;2022-08-03T06:22:07;6.23;;;3.60;;
59062;SDS011;44851;45.648;9.004;2022-08-03T06:24:33;5.73;;;4.03;;
59062;SDS011;44851;45.648;9.004;2022-08-03T06:26:58;6.53;;;3.63;;
59062;SDS011;44851;45.648;9.004;2022-08-03T06:29:23;4.37;;;3.50;;
59062;SDS011;44851;45.648;9.004;2022-08-03T06:31:49;5.13;;;3.50;;
59062;SDS011;44851;45.648;9.004;2022-08-03T06:34:14;3.90;;;3.60;;
59062;SDS011;44851;45.648;9.004;2022-08-03T06:36:39;4.83;;;3.50;;
59062;SDS011;44851;45.648;9.004;2022-08-03T06:39:05;6.23;;;3.77;;
59062;SDS011;44851;45.648;9.004;2022-08-03T06:41:31;5.67;;;3.60;;
59062;SDS011;44851;45.648;9.004;2022-08-03T06:43:57;5.33;;;3.13;;
59062;SDS011;44851;45.648;9.004;2022-08-03T06:46:22;3.97;;;3.40;;
59062;SDS011;44851;45.648;9.004;2022-08-03T06:48:47;4.40;;;3.40;;
59062;SDS011;44851;45.648;9.004;2022-08-03T06:51:13;4.37;;;3.30;;
59062;SDS011;44851;45.648;9.004;2022-08-03T06:53:38;6.27;;;3.10;;
59062;SDS011;44851;45.648;9.004;2022-08-03T06:56:04;3.33;;;3.03;;
59062;SDS011;44851;45.648;9.004;2022-08-03T06:58:30;3.60;;;2.80;;
59062;SDS011;44851;45.648;9.004;2022-08-03T07:00:56;2.70;;;2.50;;
59062;SDS011;44851;45.648;9.004;2022-08-03T07:03:21;3.00;;;2.70;;
59062;SDS011;44851;45.648;9.004;2022-08-03T07:05:48;3.80;;;2.57;;
59062;SDS011;44851;45.648;9.004;2022-08-03T07:08:33;3.63;;;2.90;;
59062;SDS011;44851;45.648;9.004;2022-08-03T07:11:10;3.03;;;2.70;;
59062;SDS011;44851;45.648;9.004;2022-08-03T07:13:35;2.53;;;2.33;;
59062;SDS011;44851;45.648;9.004;2022-08-03T07:16:00;2.67;;;2.37;;
59062;SDS011;44851;45.648;9.004;2022-08-03T07:18:26;2.43;;;2.23;;
59062;SDS011;44851;45.648;9.004;2022-08-03T07:20:51;3.33;;;2.60;;
59062;SDS011;44851;45.648;9.004;2022-08-03T07:23:16;2.93;;;2.33;;
59062;SDS011;44851;45.648;9.004;2022-08-03T07:25:42;3.60;;;2.67;;
59062;SDS011;44851;45.648;9.004;2022-08-03T07:28:07;2.90;;;2.70;;
59062;SDS011;44851;45.648;9.004;2022-08-03T07:30:33;3.33;;;2.60;;
59062;SDS011;44851;45.648;9.004;2022-08-03T07:32:59;2.50;;;2.30;;
59062;SDS011;44851;45.648;9.004;2022-08-03T07:35:24;3.67;;;2.60;;
59062;SDS011;44851;45.648;9.004;2022-08-03T07:37:50;2.77;;;2.50;;
59062;SDS011;44851;45.648;9.004;2022-08-03T07:40:15;2.97;;;2.40;;
59062;SDS011;44851;45.648;9.004;2022-08-03T07:42:41;3.00;;;2.63;;
59062;SDS011;44851;45.648;9.004;2022-08-03T07:45:07;3.17;;;2.87;;
59062;SDS011;44851;45.648;9.004;2022-08-03T07:47:33;3.37;;;2.90;;
59062;SDS011;44851;45.648;9.004;2022-08-03T07:49:59;3.03;;;2.70;;
59062;SDS011;44851;45.648;9.004;2022-08-03T07:52:24;4.90;;;2.70;;
59062;SDS011;44851;45.648;9.004;2022-08-03T07:55:20;4.13;;;2.40;;
59062;SDS011;44851;45.648;9.004;2022-08-03T07:57:58;3.57;;;2.57;;
59062;SDS011;44851;45.648;9.004;2022-08-03T08:00:31;3.23;;;2.90;;
59062;SDS011;44851;45.648;9.004;2022-08-03T08:02:56;3.63;;;2.63;;
59062;SDS011;44851;45.648;9.004;2022-08-03T08:05:22;3.40;;;2.40;;
59062;SDS011;44851;45.648;9.004;2022-08-03T08:07:54;3.50;;;2.37;;
59062;SDS011;44851;45.648;9.004;2022-08-03T08:10:19;2.50;;;2.30;;
59062;SDS011;44851;45.648;9.004;2022-08-03T08:12:45;6.07;;;2.40;;
59062;SDS011;44851;45.648;9.004;2022-08-03T08:15:10;2.67;;;2.20;;
59062;SDS011;44851;45.648;9.004;2022-08-03T08:17:49;6.93;;;2.37;;
59062;SDS011;44851;45.648;9.004;2022-08-03T08:20:17;2.50;;;2.30;;
59062;SDS011;44851;45.648;9.004;2022-08-03T08:22:44;2.20;;;2.00;;
59062;SDS011;44851;45.648;9.004;2022-08-03T08:25:10;2.73;;;2.40;;
59062;SDS011;44851;45.648;9.004;2022-08-03T08:27:46;2.73;;;2.13;;
59062;SDS011;44851;45.648;9.004;2022-08-03T08:30:13;2.20;;;2.00;;
59062;SDS011;44851;45.648;9.004;2022-08-03T08:32:40;3.63;;;2.30;;
59062;SDS011;44851;45.648;9.004;2022-08-03T08:35:06;2.00;;;1.77;;
59062;SDS011;44851;45.648;9.004;2022-08-03T08:37:33;4.17;;;2.40;;
59062;SDS011;44851;45.648;9.004;2022-08-03T08:39:59;3.90;;;2.30;;
59062;SDS011;44851;45.648;9.004;2022-08-03T08:42:24;3.10;;;2.17;;
59062;SDS011;44851;45.648;9.004;2022-08-03T08:44:50;3.67;;;2.00;;
59062;SDS011;44851;45.648;9.004;2022-08-03T08:47:18;4.40;;;2.70;;
59062;SDS011;44851;45.648;9.004;2022-08-03T08:49:50;3.03;;;2.40;;
59062;SDS011;44851;45.648;9.004;2022-08-03T08:52:17;2.70;;;2.50;;
59062;SDS011;44851;45.648;9.004;2022-08-03T08:54:47;3.90;;;2.63;;
59062;SDS011;44851;45.648;9.004;2022-08-03T08:57:13;3.73;;;2.50;;
59062;SDS011;44851;45.648;9.004;2022-08-03T08:59:41;3.20;;;2.20;;
59062;SDS011;44851;45.648;9.004;2022-08-03T09:02:08;2.80;;;2.50;;
59062;SDS011;44851;45.648;9.004;2022-08-03T09:04:34;4.80;;;2.40;;
59062;SDS011;44851;45.648;9.004;2022-08-03T09:07:02;3.87;;;2.50;;
59062;SDS011;44851;45.648;9.004;2022-08-03T09:09:28;2.20;;;1.97;;
59062;SDS011;44851;45.648;9.004;2022-08-03T09:11:54;2.80;;;2.00;;
59062;SDS011;44851;45.648;9.004;2022-08-03T09:14:20;3.27;;;2.13;;
59062;SDS011;44851;45.648;9.004;2022-08-03T09:16:59;5.10;;;2.15;;
59062;SDS011;44851;45.648;9.004;2022-08-03T09:19:29;2.38;;;2.17;;
59062;SDS011;44851;45.648;9.004;2022-08-03T09:22:15;2.53;;;2.28;;
59062;SDS011;44851;45.648;9.004;2022-08-03T09:24:55;2.50;;;2.30;;
59062;SDS011;44851;45.648;9.004;2022-08-03T09:27:23;2.30;;;2.10;;
59062;SDS011;44851;45.648;9.004;2022-08-03T09:29:50;4.80;;;2.28;;
59062;SDS011;44851;45.648;9.004;2022-08-03T09:32:20;2.67;;;2.40;;
59062;SDS011;44851;45.648;9.004;2022-08-03T09:34:47;2.55;;;2.05;;
59062;SDS011;44851;45.648;9.004;2022-08-03T09:37:14;2.92;;;2.33;;
59062;SDS011;44851;45.648;9.004;2022-08-03T09:39:40;3.05;;;2.25;;
59062;SDS011;44851;45.648;9.004;2022-08-03T09:44:37;3.58;;;2.08;;
59062;SDS011;44851;45.648;9.004;2022-08-03T09:47:06;3.53;;;2.65;;
59062;SDS011;44851;45.648;9.004;2022-08-03T09:49:34;2.55;;;2.22;;
59062;SDS011;44851;45.648;9.004;2022-08-03T09:52:00;2.58;;;2.38;;
59062;SDS011;44851;45.648;9.004;2022-08-03T09:54:35;3.22;;;2.67;;
59062;SDS011;44851;45.648;9.004;2022-08-03T09:57:01;3.05;;;2.47;;
59062;SDS011;44851;45.648;9.004;2022-08-03T09:59:27;2.95;;;2.67;;
59062;SDS011;44851;45.648;9.004;2022-08-03T10:01:55;4.75;;;2.60;;
59062;SDS011;44851;45.648;9.004;2022-08-03T10:04:22;3.20;;;2.28;;
59062;SDS011;44851;45.648;9.004;2022-08-03T10:07:07;3.45;;;2.60;;
59062;SDS011;44851;45.648;9.004;2022-08-03T10:09:35;2.83;;;2.60;;
59062;SDS011;44851;45.648;9.004;2022-08-03T10:12:11;2.80;;;2.60;;
59062;SDS011;44851;45.648;9.004;2022-08-03T10:14:38;2.53;;;2.33;;
59062;SDS011;44851;45.648;9.004;2022-08-03T10:17:05;2.70;;;2.47;;
59062;SDS011;44851;45.648;9.004;2022-08-03T10:19:31;3.75;;;2.42;;
59062;SDS011;44851;45.648;9.004;2022-08-03T10:22:00;3.75;;;2.97;;
59062;SDS011;44851;45.648;9.004;2022-08-03T10:24:28;2.72;;;2.42;;
59062;SDS011;44851;45.648;9.004;2022-08-03T10:26:59;4.10;;;2.75;;
59062;SDS011;44851;45.648;9.004;2022-08-03T10:29:34;2.78;;;2.53;;
59062;SDS011;44851;45.648;9.004;2022-08-03T10:32:03;4.15;;;2.83;;
59062;SDS011;44851;45.648;9.004;2022-08-03T10:34:33;4.10;;;2.50;;
59062;SDS011;44851;45.648;9.004;2022-08-03T10:37:01;2.80;;;2.60;;
59062;SDS011;44851;45.648;9.004;2022-08-03T10:39:31;3.97;;;2.47;;
59062;SDS011;44851;45.648;9.004;2022-08-03T10:41:57;2.50;;;2.30;;
59062;SDS011;44851;45.648;9.004;2022-08-03T10:44:23;2.72;;;2.47;;
59062;SDS011;44851;45.648;9.004;2022-08-03T10:46:52;3.55;;;2.28;;
59062;SDS011;44851;45.648;9.004;2022-08-03T10:49:18;2.50;;;2.20;;
59062;SDS011;44851;45.648;9.004;2022-08-03T10:51:45;2.80;;;2.50;;
59062;SDS011;44851;45.648;9.004;2022-08-03T10:57:45;2.60;;;2.40;;
59062;SDS011;44851;45.648;9.004;2022-08-03T11:00:11;2.50;;;2.30;;
59062;SDS011;44851;45.648;9.004;2022-08-03T11:05:46;3.05;;;2.42;;
59062;SDS011;44851;45.648;9.004;2022-08-03T11:11:02;2.40;;;2.20;;
59062;SDS011;44851;45.648;9.004;2022-08-03T11:16:36;2.53;;;2.08;;
59062;SDS011;44851;45.648;9.004;2022-08-03T11:19:03;2.10;;;2.00;;
59062;SDS011;44851;45.648;9.004;2022-08-03T11:27:16;3.05;;;2.00;;
59062;SDS011;44851;45.648;9.004;2022-08-03T11:35:05;2.63;;;2.30;;
59062;SDS011;44851;45.648;9.004;2022-08-03T11:37:34;2.72;;;2.30;;
59062;SDS011;44851;45.648;9.004;2022-08-03T11:40:00;3.58;;;2.60;;
59062;SDS011;44851;45.648;9.004;2022-08-03T11:44:56;3.63;;;2.33;;
59062;SDS011;44851;45.648;9.004;2022-08-03T11:47:23;2.60;;;2.40;;
59062;SDS011;44851;45.648;9.004;2022-08-03T11:49:52;2.55;;;2.35;;
59062;SDS011;44851;45.648;9.004;2022-08-03T11:52:19;2.63;;;2.42;;
59062;SDS011;44851;45.648;9.004;2022-08-03T11:54:47;3.38;;;2.20;;
59062;SDS011;44851;45.648;9.004;2022-08-03T11:57:27;3.28;;;2.42;;
59062;SDS011;44851;45.648;9.004;2022-08-03T11:59:53;3.72;;;2.35;;
59062;SDS011;44851;45.648;9.004;2022-08-03T12:02:19;2.65;;;2.45;;
59062;SDS011;44851;45.648;9.004;2022-08-03T12:07:22;3.95;;;2.60;;
59062;SDS011;44851;45.648;9.004;2022-08-03T12:10:11;3.38;;;2.70;;
59062;SDS011;44851;45.648;9.004;2022-08-03T12:12:38;3.13;;;2.55;;
59062;SDS011;44851;45.648;9.004;2022-08-03T12:15:05;2.60;;;2.40;;
59062;SDS011;44851;45.648;9.004;2022-08-03T12:17:34;3.55;;;2.60;;
59062;SDS011;44851;45.648;9.004;2022-08-03T12:20:02;2.83;;;2.63;;
59062;SDS011;44851;45.648;9.004;2022-08-03T12:22:30;3.08;;;2.70;;
59062;SDS011;44851;45.648;9.004;2022-08-03T12:24:58;2.83;;;2.50;;
59062;SDS011;44851;45.648;9.004;2022-08-03T12:27:24;3.47;;;2.20;;
59062;SDS011;44851;45.648;9.004;2022-08-03T12:29:52;3.15;;;2.60;;
59062;SDS011;44851;45.648;9.004;2022-08-03T12:32:18;5.07;;;2.90;;
59062;SDS011;44851;45.648;9.004;2022-08-03T12:34:47;3.70;;;2.55;;
59062;SDS011;44851;45.648;9.004;2022-08-03T12:37:16;3.30;;;2.60;;
59062;SDS011;44851;45.648;9.004;2022-08-03T12:39:48;2.70;;;2.50;;
59062;SDS011;44851;45.648;9.004;2022-08-03T12:42:16;2.60;;;2.40;;
59062;SDS011;44851;45.648;9.004;2022-08-03T12:44:41;3.08;;;2.67;;
59062;SDS011;44851;45.648;9.004;2022-08-03T12:47:07;3.60;;;2.70;;
59062;SDS011;44851;45.648;9.004;2022-08-03T12:49:43;4.85;;;2.50;;
59062;SDS011;44851;45.648;9.004;2022-08-03T12:52:10;3.05;;;2.40;;
59062;SDS011;44851;45.648;9.004;2022-08-03T12:54:35;3.97;;;2.50;;
59062;SDS011;44851;45.648;9.004;2022-08-03T12:57:02;3.60;;;2.25;;
59062;SDS011;44851;45.648;9.004;2022-08-03T12:59:33;4.20;;;2.83;;
59062;SDS011;44851;45.648;9.004;2022-08-03T13:02:15;2.83;;;2.53;;
59062;SDS011;44851;45.648;9.004;2022-08-03T13:04:42;2.63;;;2.33;;
59062;SDS011;44851;45.648;9.004;2022-08-03T13:07:09;4.13;;;2.60;;
59062;SDS011;44851;45.648;9.004;2022-08-03T13:12:18;2.72;;;2.53;;
59062;SDS011;44851;45.648;9.004;2022-08-03T13:14:54;2.85;;;2.22;;
59062;SDS011;44851;45.648;9.004;2022-08-03T13:17:21;3.30;;;2.28;;
59062;SDS011;44851;45.648;9.004;2022-08-03T13:19:47;4.20;;;2.70;;
59062;SDS011;44851;45.648;9.004;2022-08-03T13:22:20;3.10;;;2.45;;
59062;SDS011;44851;45.648;9.004;2022-08-03T13:24:51;3.13;;;2.80;;
59062;SDS011;44851;45.648;9.004;2022-08-03T13:27:21;3.70;;;2.60;;
59062;SDS011;44851;45.648;9.004;2022-08-03T13:29:47;2.97;;;2.70;;
59062;SDS011;44851;45.648;9.004;2022-08-03T13:32:12;4.70;;;2.50;;
59062;SDS011;44851;45.648;9.004;2022-08-03T13:34:38;3.72;;;2.45;;
59062;SDS011;44851;45.648;9.004;2022-08-03T13:37:03;3.42;;;2.90;;
59062;SDS011;44851;45.648;9.004;2022-08-03T13:39:29;5.03;;;2.80;;
59062;SDS011;44851;45.648;9.004;2022-08-03T13:41:55;2.55;;;2.42;;
59062;SDS011;44851;45.648;9.004;2022-08-03T13:44:20;2.67;;;2.40;;
59062;SDS011;44851;45.648;9.004;2022-08-03T13:46:46;2.80;;;2.60;;
59062;SDS011;44851;45.648;9.004;2022-08-03T13:49:11;4.18;;;2.55;;
59062;SDS011;44851;45.648;9.004;2022-08-03T13:51:37;3.40;;;2.55;;
59062;SDS011;44851;45.648;9.004;2022-08-03T13:54:02;3.78;;;2.70;;
59062;SDS011;44851;45.648;9.004;2022-08-03T13:56:28;4.00;;;2.70;;
59062;SDS011;44851;45.648;9.004;2022-08-03T13:58:55;4.97;;;2.42;;
59062;SDS011;44851;45.648;9.004;2022-08-03T14:01:22;3.47;;;2.42;;
59062;SDS011;44851;45.648;9.004;2022-08-03T14:03:47;4.65;;;2.92;;
59062;SDS011;44851;45.648;9.004;2022-08-03T14:06:16;2.72;;;2.53;;
59062;SDS011;44851;45.648;9.004;2022-08-03T14:08:42;4.63;;;3.25;;
59062;SDS011;44851;45.648;9.004;2022-08-03T14:11:08;2.67;;;2.45;;
59062;SDS011;44851;45.648;9.004;2022-08-03T14:13:34;3.45;;;2.88;;
59062;SDS011;44851;45.648;9.004;2022-08-03T14:15:59;3.97;;;2.88;;
59062;SDS011;44851;45.648;9.004;2022-08-03T14:18:25;5.70;;;2.90;;
59062;SDS011;44851;45.648;9.004;2022-08-03T14:20:50;3.10;;;2.80;;
59062;SDS011;44851;45.648;9.004;2022-08-03T14:23:16;2.70;;;2.50;;
59062;SDS011;44851;45.648;9.004;2022-08-03T14:25:41;4.97;;;2.85;;
59062;SDS011;44851;45.648;9.004;2022-08-03T14:28:07;3.55;;;2.83;;
59062;SDS011;44851;45.648;9.004;2022-08-03T14:30:33;5.45;;;2.70;;
59062;SDS011;44851;45.648;9.004;2022-08-03T14:32:59;2.97;;;2.78;;
59062;SDS011;44851;45.648;9.004;2022-08-03T14:35:24;4.45;;;2.60;;
59062;SDS011;44851;45.648;9.004;2022-08-03T14:37:49;3.30;;;3.00;;
59062;SDS011;44851;45.648;9.004;2022-08-03T14:40:15;3.47;;;2.92;;
59062;SDS011;44851;45.648;9.004;2022-08-03T14:42:41;5.93;;;2.90;;
59062;SDS011;44851;45.648;9.004;2022-08-03T14:45:06;3.25;;;2.88;;
59062;SDS011;44851;45.648;9.004;2022-08-03T14:47:32;4.55;;;2.65;;
59062;SDS011;44851;45.648;9.004;2022-08-03T14:49:57;2.90;;;2.70;;
59062;SDS011;44851;45.648;9.004;2022-08-03T14:52:23;4.38;;;2.53;;
59062;SDS011;44851;45.648;9.004;2022-08-03T14:54:48;3.55;;;2.88;;
59062;SDS011;44851;45.648;9.004;2022-08-03T14:57:14;3.30;;;2.50;;
59062;SDS011;44851;45.648;9.004;2022-08-03T14:59:39;3.45;;;2.95;;
59062;SDS011;44851;45.648;9.004;2022-08-03T15:02:05;4.60;;;3.05;;
59062;SDS011;44851;45.648;9.004;2022-08-03T15:04:30;3.50;;;2.55;;
59062;SDS011;44851;45.648;9.004;2022-08-03T15:06:56;3.90;;;2.70;;
59062;SDS011;44851;45.648;9.004;2022-08-03T15:09:21;3.03;;;2.78;;
59062;SDS011;44851;45.648;9.004;2022-08-03T15:11:46;3.88;;;3.15;;
59062;SDS011;44851;45.648;9.004;2022-08-03T15:14:12;3.15;;;2.40;;
59062;SDS011;44851;45.648;9.004;2022-08-03T15:16:38;4.93;;;2.97;;
59062;SDS011;44851;45.648;9.004;2022-08-03T15:19:04;2.95;;;2.63;;
59062;SDS011;44851;45.648;9.004;2022-08-03T15:21:30;3.08;;;2.70;;
59062;SDS011;44851;45.648;9.004;2022-08-03T15:23:55;2.95;;;2.65;;
59062;SDS011;44851;45.648;9.004;2022-08-03T15:26:21;2.85;;;2.65;;
59062;SDS011;44851;45.648;9.004;2022-08-03T15:28:46;3.53;;;2.85;;
59062;SDS011;44851;45.648;9.004;2022-08-03T15:31:11;3.42;;;2.67;;
59062;SDS011;44851;45.648;9.004;2022-08-03T15:33:37;3.58;;;3.13;;
59062;SDS011;44851;45.648;9.004;2022-08-03T15:36:03;3.10;;;2.83;;